Salt Flat, TX (79847)

9:09 PM MST on January 29, 2015 (GMT -0700)
APRSWXNET Salt Flat TX US | Change Station
CLOSE
Current Station
Personal Weather Station
Location: Salt Flat, TX
Elevation: 3681 ft
Nearby Weather Stations

Elev 3681 ft 31.84 °N, 104.96 °W | Updated 36 minutes ago

Overcast
Overcast
48 °F
Feels Like 48 °F
N
3
Wind Variable Wind from North
Gusts 0.0 mph

Today
High -- | Low -- °F
--% Chance of Precip.
Yesterday
High -- | Low -- °F
Precip. -- in
6:55 AM 5:31 PM
Waxing Gibbous, 79% visible
Pressure 30.33 in
Visibility 10.0 miles
Clouds Overcast 6000 ft
Windchill 48 °F
Dew Point 41 °F
Humidity 77%
Rainfall 0.00 in
Snow Depth Not available.
UV 0 out of 12
Pollen 5.00 out of 12
Air Quality Not available.
Flu Activity Not available.
METAR KGDP 300351Z AUTO 04035KT 10SM OVC060 03/01 A3040 RMK AO2 PK WND 05040/0312 RAE03 SLP271 P0000 T00330011

More Conditions Fewer Conditions

Pressure 30.33 in
Visibility 10.0 miles
Clouds Overcast 6000 ft
Windchill 48 °F
Dew Point 41 °F
Humidity 77%
Rainfall 0.00 in
Snow Depth Not available.
UV 0 out of 12
Pollen 5.00 out of 12
Air Quality Not available.
Flu Activity Not available.
METAR KGDP 300351Z AUTO 04035KT 10SM OVC060 03/01 A3040 RMK AO2 PK WND 05040/0312 RAE03 SLP271 P0000 T00330011

More Conditions Fewer Conditions

10-Day Weather Forecast

Almanac

Astronomy

Jan. 29, 2015 Rise Set
Actual Time
Civil Twilight
Nautical Twilight
Astronomical Twilight
Moon
Length of Visible Light
Length of Day
Tomorrow will be .
, % of the Moon is Illuminated

Today's Extremes

State Highs State Lows

Community

WunderPhotos

Upload Photos

1,791,699 photos uploaded!

WunderBlogs® & News

Nearby

Air Quality

  Air Quality AQ Index Pollutant
Not available.

Snow Depth

Station Depth Elevation

Earthquake Activity

City Distance Mag. Time & Date
Minimum magnitude displayed is 2.5.

Coastal Water Temperatures

Place Temperature

Nearby Weather Stations